Time;durP1;ratioP1;P1;durP2;ratioP2;P2;SDS_P1;SDS_P2;PMS_P1;PMS_P2;Temp;Humidity;BMP_temperature;BMP_pressure;BME280_temperature;BME280_humidity;BME280_pressure;Samples;Min_cycle;Max_cycle;Signal;HPM_P1;HPM_P2
2022/03/04 00:02:15;;;;;;;;;;;21.60;41.30;;;;;;5072452;28;19968;-56
2022/03/04 00:04:41;;;;;;;;;;;21.50;41.40;;;;;;5065977;28;20467;-54
2022/03/04 00:07:06;;;;;;;;;;;21.40;41.30;;;;;;5071234;28;19974;-56
2022/03/04 00:09:32;;;;;;;;;;;21.40;41.30;;;;;;5069700;28;20038;-56
2022/03/04 00:11:57;;;;;;;;;;;21.40;41.30;;;;;;5071338;28;19999;-56
2022/03/04 00:14:24;;;;;;;;;;;21.30;41.30;;;;;;5070083;28;19912;-56
2022/03/04 00:16:50;;;;;;;;;;;21.30;41.40;;;;;;5069591;28;19923;-56
2022/03/04 00:19:16;;;;;;;;;;;21.30;41.50;;;;;;5071564;28;19916;-56
2022/03/04 00:21:49;;;;;;;;;;;21.20;41.30;;;;;;5070008;28;20364;-56
2022/03/04 00:24:14;;;;;;;;;;;21.20;41.40;;;;;;5068087;28;20229;-56
2022/03/04 00:26:40;;;;;;;;;;;21.20;41.30;;;;;;5069692;28;19924;-56
2022/03/04 00:29:06;;;;;;;;;;;21.20;41.50;;;;;;5069714;28;20003;-56
2022/03/04 00:31:31;;;;;;;;;;;21.20;41.50;;;;;;5070568;28;19916;-56
2022/03/04 00:33:57;;;;;;;;;;;21.10;41.50;;;;;;5070001;28;20038;-54
2022/03/04 00:36:23;;;;;;;;;;;21.10;41.60;;;;;;5068978;28;19923;-56
2022/03/04 00:38:52;;;;;;;;;;;21.10;41.50;;;;;;5069222;28;19917;-56
2022/03/04 00:41:18;;;;;;;;;;;21.00;41.50;;;;;;5068203;28;19931;-56
2022/03/04 00:43:43;;;;;;;;;;;21.00;41.40;;;;;;5070022;28;19924;-56
2022/03/04 00:46:09;;;;;;;;;;;21.00;41.50;;;;;;5068845;28;19969;-56
2022/03/04 00:48:34;;;;;;;;;;;21.00;41.50;;;;;;5068764;28;19939;-56
2022/03/04 00:51:00;;;;;;;;;;;21.00;41.50;;;;;;5068536;28;19925;-56
2022/03/04 00:53:25;;;;;;;;;;;21.00;41.60;;;;;;5070010;28;19999;-55
2022/03/04 00:55:51;;;;;;;;;;;21.00;41.50;;;;;;5069716;28;19919;-56
2022/03/04 00:58:16;;;;;;;;;;;21.00;41.50;;;;;;5070075;28;20015;-56
2022/03/04 01:00:42;;;;;;;;;;;21.00;41.50;;;;;;5069696;28;20363;-56
2022/03/04 01:03:07;;;;;;;;;;;21.00;41.40;;;;;;5069671;28;19912;-56
2022/03/04 01:05:33;;;;;;;;;;;20.90;41.40;;;;;;5070587;28;19920;-56
2022/03/04 01:07:58;;;;;;;;;;;20.90;41.60;;;;;;5069882;28;19920;-56
2022/03/04 01:10:24;;;;;;;;;;;20.90;41.60;;;;;;5069258;28;19958;-56
2022/03/04 01:12:49;;;;;;;;;;;20.90;41.60;;;;;;5064518;28;19919;-56
2022/03/04 01:15:14;;;;;;;;;;;20.80;41.60;;;;;;5069044;28;19921;-56
2022/03/04 01:17:40;;;;;;;;;;;20.90;41.50;;;;;;5070346;28;20009;-56
2022/03/04 01:20:06;;;;;;;;;;;20.80;41.30;;;;;;5068890;28;19919;-56
2022/03/04 01:22:31;;;;;;;;;;;20.80;41.40;;;;;;5070419;28;19920;-56
2022/03/04 01:24:57;;;;;;;;;;;20.80;41.50;;;;;;5069041;28;19913;-55
2022/03/04 01:27:22;;;;;;;;;;;20.80;41.50;;;;;;5068781;28;19912;-55
2022/03/04 01:29:48;;;;;;;;;;;20.80;41.60;;;;;;5066472;28;20642;-56
2022/03/04 01:32:13;;;;;;;;;;;20.80;41.50;;;;;;5069455;28;19913;-55
2022/03/04 01:34:39;;;;;;;;;;;20.70;41.50;;;;;;5070426;28;20078;-56
2022/03/04 01:37:04;;;;;;;;;;;20.70;41.60;;;;;;5067645;28;20027;-58
2022/03/04 01:39:30;;;;;;;;;;;20.70;41.80;;;;;;5070858;28;19919;-54
2022/03/04 01:41:56;;;;;;;;;;;20.70;41.50;;;;;;5068332;28;19920;-56
2022/03/04 01:44:21;;;;;;;;;;;20.70;41.60;;;;;;5067541;28;20379;-55
2022/03/04 01:46:46;;;;;;;;;;;20.60;42.30;;;;;;5068544;28;20519;-56
2022/03/04 01:49:12;;;;;;;;;;;20.60;41.60;;;;;;5072702;28;20003;-56
2022/03/04 01:51:37;;;;;;;;;;;20.60;41.50;;;;;;5074127;28;20367;-56
2022/03/04 01:54:03;;;;;;;;;;;20.60;41.50;;;;;;5070798;28;20392;-56
2022/03/04 01:56:29;;;;;;;;;;;20.60;41.70;;;;;;5071925;28;20324;-57
2022/03/04 01:58:54;;;;;;;;;;;20.50;41.60;;;;;;5072270;28;19924;-55
2022/03/04 02:01:19;;;;;;;;;;;20.60;41.60;;;;;;5071794;28;19920;-55
2022/03/04 02:03:45;;;;;;;;;;;20.60;41.50;;;;;;5073823;28;19917;-55
2022/03/04 02:06:10;;;;;;;;;;;20.50;41.60;;;;;;5072100;28;19929;-56
2022/03/04 02:08:36;;;;;;;;;;;20.50;41.50;;;;;;5072440;28;19912;-56
2022/03/04 02:11:01;;;;;;;;;;;20.50;41.50;;;;;;5071704;28;19920;-56
2022/03/04 02:13:27;;;;;;;;;;;20.50;41.60;;;;;;5072339;28;20015;-56
2022/03/04 02:15:52;;;;;;;;;;;20.50;41.50;;;;;;5068995;28;19955;-55
2022/03/04 02:18:18;;;;;;;;;;;20.50;41.20;;;;;;5067917;28;19920;-56
2022/03/04 02:20:47;;;;;;;;;;;20.50;41.40;;;;;;5070624;28;19948;-55
2022/03/04 02:23:12;;;;;;;;;;;20.60;41.40;;;;;;5068525;28;19925;-56
2022/03/04 02:25:39;;;;;;;;;;;20.80;41.30;;;;;;5070371;28;19912;-56
2022/03/04 02:28:04;;;;;;;;;;;20.90;41.20;;;;;;5071860;28;20480;-56
2022/03/04 02:30:30;;;;;;;;;;;21.10;41.10;;;;;;5070649;28;19920;-56
2022/03/04 02:32:55;;;;;;;;;;;21.30;40.80;;;;;;5071637;28;19917;-56
2022/03/04 02:35:21;;;;;;;;;;;21.60;40.40;;;;;;5071136;28;19952;-56
2022/03/04 02:37:46;;;;;;;;;;;21.90;40.40;;;;;;5071232;28;19999;-56
2022/03/04 02:40:12;;;;;;;;;;;22.10;39.90;;;;;;5071544;28;20340;-55
2022/03/04 02:42:37;;;;;;;;;;;22.30;39.60;;;;;;5070553;28;20583;-56
2022/03/04 02:45:03;;;;;;;;;;;22.40;39.30;;;;;;5071159;28;19916;-57
2022/03/04 02:47:28;;;;;;;;;;;22.40;39.20;;;;;;5069212;28;20083;-55
2022/03/04 02:49:54;;;;;;;;;;;22.40;39.20;;;;;;5071624;28;20451;-55
2022/03/04 02:52:19;;;;;;;;;;;22.40;39.10;;;;;;5070488;28;20414;-56
2022/03/04 02:54:45;;;;;;;;;;;22.40;39.10;;;;;;5070807;28;19924;-55
2022/03/04 02:57:10;;;;;;;;;;;22.40;39.00;;;;;;5070244;28;19975;-55
2022/03/04 02:59:35;;;;;;;;;;;22.40;39.00;;;;;;5068738;28;19923;-56
2022/03/04 03:02:01;;;;;;;;;;;22.50;39.10;;;;;;5071588;28;19931;-56
2022/03/04 03:04:26;;;;;;;;;;;22.50;39.00;;;;;;5069675;28;19920;-56
2022/03/04 03:06:52;;;;;;;;;;;22.50;38.80;;;;;;5071699;28;19967;-56
2022/03/04 03:09:17;;;;;;;;;;;22.50;38.50;;;;;;5069728;28;22052;-55
2022/03/04 03:11:43;;;;;;;;;;;22.40;38.50;;;;;;5070723;28;19912;-56
2022/03/04 03:14:08;;;;;;;;;;;22.40;38.60;;;;;;5064112;28;19920;-57
2022/03/04 03:16:34;;;;;;;;;;;22.30;38.60;;;;;;5069745;28;19908;-56
2022/03/04 03:18:59;;;;;;;;;;;22.30;38.80;;;;;;5070551;28;19912;-55
2022/03/04 03:21:24;;;;;;;;;;;22.20;39.20;;;;;;5069798;28;19912;-55
2022/03/04 03:23:50;;;;;;;;;;;22.20;38.50;;;;;;5070514;28;19963;-57
2022/03/04 03:26:15;;;;;;;;;;;22.10;38.40;;;;;;5069579;28;19916;-56
2022/03/04 03:28:41;;;;;;;;;;;22.10;38.50;;;;;;5069198;28;19927;-56
2022/03/04 03:31:07;;;;;;;;;;;22.00;38.50;;;;;;5070698;28;20110;-56
2022/03/04 03:33:32;;;;;;;;;;;22.00;38.50;;;;;;5067658;28;19940;-56
2022/03/04 03:35:58;;;;;;;;;;;21.90;38.70;;;;;;5071251;28;19964;-55
2022/03/04 03:38:24;;;;;;;;;;;21.80;38.80;;;;;;5069021;28;19916;-56
2022/03/04 03:40:49;;;;;;;;;;;21.80;38.90;;;;;;5070442;28;19939;-56
2022/03/04 03:43:15;;;;;;;;;;;21.70;38.90;;;;;;5069500;28;19920;-55
2022/03/04 03:45:40;;;;;;;;;;;21.70;39.00;;;;;;5070091;28;19920;-55
2022/03/04 03:48:05;;;;;;;;;;;21.60;39.00;;;;;;5070185;28;19916;-55
2022/03/04 03:50:31;;;;;;;;;;;21.50;39.20;;;;;;5068862;28;19908;-56
2022/03/04 03:52:56;;;;;;;;;;;21.50;39.40;;;;;;5069449;28;19957;-55
2022/03/04 03:55:22;;;;;;;;;;;21.50;39.30;;;;;;5069563;28;19916;-55
2022/03/04 03:57:47;;;;;;;;;;;21.50;39.70;;;;;;5069131;28;19952;-56
2022/03/04 04:00:13;;;;;;;;;;;21.50;40.10;;;;;;5068003;28;19966;-55
2022/03/04 04:02:39;;;;;;;;;;;21.40;40.10;;;;;;5070130;28;19919;-56
2022/03/04 04:05:05;;;;;;;;;;;21.30;40.20;;;;;;5069820;28;19942;-55
2022/03/04 04:07:30;;;;;;;;;;;21.30;40.40;;;;;;5069687;28;19916;-55
2022/03/04 04:09:56;;;;;;;;;;;21.20;40.40;;;;;;5069846;28;19924;-57
2022/03/04 04:12:22;;;;;;;;;;;21.20;40.40;;;;;;5067953;28;19912;-57
2022/03/04 04:14:47;;;;;;;;;;;21.30;40.40;;;;;;5068978;28;19920;-56
2022/03/04 04:17:13;;;;;;;;;;;21.20;40.40;;;;;;5070085;28;19920;-56
2022/03/04 04:19:38;;;;;;;;;;;21.20;40.50;;;;;;5068921;28;20007;-56
2022/03/04 04:22:04;;;;;;;;;;;21.20;40.50;;;;;;5070049;28;19951;-56
2022/03/04 04:24:29;;;;;;;;;;;21.20;40.50;;;;;;5069324;28;22904;-57
2022/03/04 04:26:55;;;;;;;;;;;21.20;40.40;;;;;;5069537;28;19922;-56
2022/03/04 04:29:20;;;;;;;;;;;21.20;40.40;;;;;;5069382;28;19916;-55
2022/03/04 04:31:46;;;;;;;;;;;21.20;40.50;;;;;;5069423;28;20367;-55
2022/03/04 04:34:11;;;;;;;;;;;21.30;40.20;;;;;;5069369;28;19912;-56
2022/03/04 04:36:37;;;;;;;;;;;21.30;39.90;;;;;;5069709;28;19948;-56
2022/03/04 04:39:03;;;;;;;;;;;21.30;39.80;;;;;;5069928;28;20431;-55
2022/03/04 04:41:28;;;;;;;;;;;21.40;39.60;;;;;;5068823;28;20012;-56
2022/03/04 04:43:54;;;;;;;;;;;21.40;39.80;;;;;;5069124;28;19920;-55
2022/03/04 04:46:19;;;;;;;;;;;21.40;39.20;;;;;;5068881;28;20010;-55
2022/03/04 04:48:45;;;;;;;;;;;21.40;39.00;;;;;;5068839;28;19916;-56
2022/03/04 04:51:10;;;;;;;;;;;21.40;39.10;;;;;;5069704;28;19924;-55
2022/03/04 04:53:36;;;;;;;;;;;21.40;39.00;;;;;;5068465;28;19932;-56
2022/03/04 04:56:01;;;;;;;;;;;21.50;39.00;;;;;;5069930;28;19920;-56
2022/03/04 04:58:27;;;;;;;;;;;21.50;38.90;;;;;;5068625;28;20334;-55
2022/03/04 05:00:55;;;;;;;;;;;21.50;39.10;;;;;;5068278;28;19946;-56
2022/03/04 05:03:21;;;;;;;;;;;21.50;39.20;;;;;;5065661;28;19963;-55
2022/03/04 05:05:47;;;;;;;;;;;21.50;39.00;;;;;;5069155;28;19960;-55
2022/03/04 05:08:12;;;;;;;;;;;21.50;39.60;;;;;;5067975;28;20667;-57
2022/03/04 05:10:38;;;;;;;;;;;21.40;39.80;;;;;;5068420;28;19912;-55
2022/03/04 05:13:03;;;;;;;;;;;21.30;39.90;;;;;;5067772;28;20042;-55
2022/03/04 05:15:29;;;;;;;;;;;21.30;40.10;;;;;;5062551;28;19913;-56
2022/03/04 05:17:54;;;;;;;;;;;21.20;40.10;;;;;;5068686;28;20156;-56
2022/03/04 05:20:20;;;;;;;;;;;21.10;39.90;;;;;;5068644;28;19974;-56
2022/03/04 05:22:45;;;;;;;;;;;21.10;40.20;;;;;;5070300;28;19931;-56
2022/03/04 05:25:11;;;;;;;;;;;21.10;40.30;;;;;;5072180;28;19946;-56
2022/03/04 05:27:36;;;;;;;;;;;21.00;40.40;;;;;;5071647;28;19912;-57
2022/03/04 05:30:02;;;;;;;;;;;21.00;40.40;;;;;;5073263;28;19912;-56
2022/03/04 05:32:28;;;;;;;;;;;21.00;40.40;;;;;;5066327;28;19919;-55
2022/03/04 05:34:53;;;;;;;;;;;21.00;40.30;;;;;;5070872;28;19916;-57
2022/03/04 05:37:18;;;;;;;;;;;21.10;40.30;;;;;;5070496;28;19959;-55
2022/03/04 05:39:44;;;;;;;;;;;21.20;40.00;;;;;;5072514;28;20002;-55
2022/03/04 05:42:09;;;;;;;;;;;21.20;39.30;;;;;;5071578;28;19924;-55
2022/03/04 05:44:35;;;;;;;;;;;21.30;39.30;;;;;;5071441;28;19921;-56
2022/03/04 05:47:00;;;;;;;;;;;21.40;39.10;;;;;;5072888;28;20375;-56
2022/03/04 05:49:26;;;;;;;;;;;21.40;39.20;;;;;;5070672;28;20003;-56
2022/03/04 05:51:51;;;;;;;;;;;21.40;38.80;;;;;;5072632;28;19966;-55
2022/03/04 05:54:17;;;;;;;;;;;21.40;38.70;;;;;;5070727;28;19959;-55
2022/03/04 05:56:42;;;;;;;;;;;21.40;38.80;;;;;;5071329;28;19939;-54
2022/03/04 05:59:08;;;;;;;;;;;21.50;38.70;;;;;;5071624;28;20279;-55
2022/03/04 06:01:33;;;;;;;;;;;21.50;38.50;;;;;;5069362;28;20291;-56
2022/03/04 06:03:58;;;;;;;;;;;21.50;38.60;;;;;;5071511;28;19960;-56
2022/03/04 06:06:25;;;;;;;;;;;21.40;38.40;;;;;;5071255;28;20456;-55
2022/03/04 06:08:50;;;;;;;;;;;21.40;38.70;;;;;;5071792;28;20697;-55
2022/03/04 06:11:16;;;;;;;;;;;21.40;39.30;;;;;;5071706;28;19959;-55
2022/03/04 06:13:41;;;;;;;;;;;21.30;39.30;;;;;;5071106;28;19919;-55
2022/03/04 06:16:07;;;;;;;;;;;21.30;39.60;;;;;;5071848;28;20376;-55
2022/03/04 06:18:33;;;;;;;;;;;21.20;39.70;;;;;;5069502;28;19919;-54
2022/03/04 06:20:58;;;;;;;;;;;21.10;39.90;;;;;;5068878;28;19912;-55
2022/03/04 06:23:24;;;;;;;;;;;21.00;39.80;;;;;;5066994;28;19924;-55
2022/03/04 06:25:50;;;;;;;;;;;21.00;40.00;;;;;;5070091;28;19912;-55
2022/03/04 06:28:16;;;;;;;;;;;20.90;40.10;;;;;;5070300;28;19959;-56
2022/03/04 06:30:41;;;;;;;;;;;20.90;40.00;;;;;;5069201;28;20424;-55
2022/03/04 06:35:51;;;;;;;;;;;20.90;40.00;;;;;;5071034;28;19939;-55
2022/03/04 06:38:17;;;;;;;;;;;21.00;39.90;;;;;;5069977;28;19916;-55
2022/03/04 06:40:43;;;;;;;;;;;21.10;39.60;;;;;;5072062;28;19912;-55
2022/03/04 06:43:08;;;;;;;;;;;21.10;39.40;;;;;;5069743;28;19924;-55
2022/03/04 06:45:34;;;;;;;;;;;21.20;39.00;;;;;;5071297;28;19935;-55
2022/03/04 06:47:59;;;;;;;;;;;21.20;38.70;;;;;;5070298;28;19939;-55
2022/03/04 06:50:25;;;;;;;;;;;21.30;38.80;;;;;;5069519;28;20352;-55
2022/03/04 06:52:50;;;;;;;;;;;21.30;38.50;;;;;;5070611;28;19924;-55
2022/03/04 06:55:16;;;;;;;;;;;21.30;38.50;;;;;;5070256;28;19921;-55
2022/03/04 06:57:41;;;;;;;;;;;21.30;38.60;;;;;;5069877;28;20285;-55
2022/03/04 07:00:09;;;;;;;;;;;21.30;38.60;;;;;;5070487;28;19983;-55
2022/03/04 07:02:35;;;;;;;;;;;21.40;38.90;;;;;;5070305;28;19920;-55
2022/03/04 07:05:04;;;;;;;;;;;21.30;38.90;;;;;;5067817;28;19924;-55
2022/03/04 07:07:29;;;;;;;;;;;21.30;39.00;;;;;;5068885;28;20685;-55
2022/03/04 07:09:55;;;;;;;;;;;21.20;39.00;;;;;;5069793;28;19920;-55
2022/03/04 07:12:20;;;;;;;;;;;21.20;39.00;;;;;;5068635;28;20364;-56
2022/03/04 07:14:46;;;;;;;;;;;21.20;39.00;;;;;;5064677;28;20431;-57
2022/03/04 07:17:12;;;;;;;;;;;21.20;39.00;;;;;;5069910;28;19913;-56
2022/03/04 07:19:37;;;;;;;;;;;21.10;39.10;;;;;;5069548;28;19913;-56
2022/03/04 07:22:03;;;;;;;;;;;21.00;39.20;;;;;;5070028;28;19966;-55
2022/03/04 07:24:28;;;;;;;;;;;21.00;40.00;;;;;;5069603;28;19920;-56
2022/03/04 07:26:54;;;;;;;;;;;20.90;39.30;;;;;;5069283;28;19935;-56
2022/03/04 07:29:19;;;;;;;;;;;20.90;39.60;;;;;;5068810;28;20015;-56
2022/03/04 07:31:45;;;;;;;;;;;20.90;39.50;;;;;;5069785;28;20252;-55
2022/03/04 07:34:10;;;;;;;;;;;20.90;39.60;;;;;;5068183;28;19916;-56
2022/03/04 07:36:36;;;;;;;;;;;20.90;39.40;;;;;;5066811;28;20035;-54
2022/03/04 07:39:01;;;;;;;;;;;21.00;39.20;;;;;;5069949;28;19913;-56
2022/03/04 07:41:26;;;;;;;;;;;21.10;38.80;;;;;;5069697;28;19916;-56
2022/03/04 07:43:52;;;;;;;;;;;21.10;38.80;;;;;;5066646;28;19916;-56
2022/03/04 07:46:19;;;;;;;;;;;21.20;38.60;;;;;;5072976;28;20007;-56
2022/03/04 07:48:44;;;;;;;;;;;21.20;38.50;;;;;;5073162;28;20013;-55
2022/03/04 07:51:10;;;;;;;;;;;21.20;38.30;;;;;;5073516;28;20383;-56
2022/03/04 07:53:35;;;;;;;;;;;21.20;38.20;;;;;;5063439;28;20312;-55
2022/03/04 07:56:01;;;;;;;;;;;21.30;38.40;;;;;;5065422;28;19916;-55
2022/03/04 07:58:26;;;;;;;;;;;21.30;38.10;;;;;;5063126;28;19916;-57
2022/03/04 08:00:51;;;;;;;;;;;21.30;38.30;;;;;;5071387;28;19921;-55
2022/03/04 08:03:17;;;;;;;;;;;21.30;38.50;;;;;;5072349;28;19924;-56
2022/03/04 08:05:43;;;;;;;;;;;21.30;38.60;;;;;;5072712;28;19921;-56
2022/03/04 08:08:09;;;;;;;;;;;21.20;38.80;;;;;;5061679;28;19913;-57
2022/03/04 08:10:35;;;;;;;;;;;21.20;38.40;;;;;;5071582;28;20435;-57
2022/03/04 08:13:00;;;;;;;;;;;21.20;38.90;;;;;;5056868;28;19996;-55
2022/03/04 08:15:26;;;;;;;;;;;21.10;39.10;;;;;;5062050;28;20012;-55
2022/03/04 08:17:51;;;;;;;;;;;21.00;39.30;;;;;;5067966;28;19916;-55
2022/03/04 08:20:17;;;;;;;;;;;21.00;39.40;;;;;;5072891;28;19912;-57
2022/03/04 08:22:42;;;;;;;;;;;21.00;39.40;;;;;;5072801;28;19913;-56
2022/03/04 08:25:08;;;;;;;;;;;20.90;39.50;;;;;;5068354;28;19912;-56
2022/03/04 08:27:41;;;;;;;;;;;20.80;39.60;;;;;;5072046;28;21190;-56
2022/03/04 08:30:07;;;;;;;;;;;20.80;39.60;;;;;;5072722;28;20351;-56
2022/03/04 08:32:33;;;;;;;;;;;20.80;39.60;;;;;;5061978;28;19912;-56
2022/03/04 08:34:59;;;;;;;;;;;20.70;39.90;;;;;;5056831;28;19992;-56
2022/03/04 08:37:25;;;;;;;;;;;20.70;40.00;;;;;;5072770;28;20333;-56
2022/03/04 08:39:50;;;;;;;;;;;20.80;39.90;;;;;;5067115;28;20007;-56
2022/03/04 08:42:16;;;;;;;;;;;20.80;39.80;;;;;;5071531;28;19923;-56
2022/03/04 08:44:42;;;;;;;;;;;20.90;39.60;;;;;;5068724;28;20007;-56
2022/03/04 08:47:07;;;;;;;;;;;20.90;39.60;;;;;;5065949;28;19912;-57
2022/03/04 08:49:33;;;;;;;;;;;20.90;39.40;;;;;;5065115;28;19913;-56
2022/03/04 08:51:59;;;;;;;;;;;21.00;39.10;;;;;;5067528;28;19912;-56
2022/03/04 08:54:25;;;;;;;;;;;21.00;38.70;;;;;;5067919;28;19913;-56
2022/03/04 08:56:51;;;;;;;;;;;21.10;39.10;;;;;;5065742;28;19923;-56
2022/03/04 08:59:16;;;;;;;;;;;21.10;39.30;;;;;;5068183;28;19931;-55
2022/03/04 09:01:41;;;;;;;;;;;21.10;39.20;;;;;;5068158;28;20296;-56
2022/03/04 09:04:07;;;;;;;;;;;21.10;39.00;;;;;;5066150;28;20323;-55
2022/03/04 09:06:32;;;;;;;;;;;21.20;39.20;;;;;;5066875;28;20564;-56
2022/03/04 09:08:58;;;;;;;;;;;21.20;38.80;;;;;;5071366;28;19920;-56
2022/03/04 09:11:24;;;;;;;;;;;21.20;39.30;;;;;;5071735;28;20431;-56
2022/03/04 09:13:49;;;;;;;;;;;21.30;39.40;;;;;;5065253;28;19912;-55
2022/03/04 09:16:14;;;;;;;;;;;21.70;39.00;;;;;;5066125;28;20053;-55
2022/03/04 09:18:40;;;;;;;;;;;22.10;38.40;;;;;;5070110;28;20303;-56
2022/03/04 09:21:05;;;;;;;;;;;22.50;37.90;;;;;;5070461;28;20315;-55
2022/03/04 09:23:31;;;;;;;;;;;22.80;37.40;;;;;;5070190;28;20399;-55
2022/03/04 09:25:56;;;;;;;;;;;23.00;37.00;;;;;;5071707;28;19909;-55
2022/03/04 09:28:22;;;;;;;;;;;23.30;36.90;;;;;;5070179;28;19916;-55
2022/03/04 09:30:47;;;;;;;;;;;23.40;36.40;;;;;;5071108;28;19999;-56
2022/03/04 09:33:13;;;;;;;;;;;23.50;36.40;;;;;;5068418;28;20273;-56
2022/03/04 09:35:38;;;;;;;;;;;23.70;36.50;;;;;;5071982;28;19913;-55
2022/03/04 09:38:04;;;;;;;;;;;23.80;36.20;;;;;;5064472;28;19916;-55
2022/03/04 09:40:30;;;;;;;;;;;23.80;35.90;;;;;;5071209;28;20374;-55
2022/03/04 09:42:56;;;;;;;;;;;23.90;35.90;;;;;;5071143;28;19943;-55
2022/03/04 09:45:21;;;;;;;;;;;24.00;35.90;;;;;;5069182;28;19919;-55
2022/03/04 09:47:47;;;;;;;;;;;24.00;35.90;;;;;;5070753;28;20378;-56
2022/03/04 09:50:15;;;;;;;;;;;24.00;35.80;;;;;;5060615;28;20369;-56
2022/03/04 09:52:41;;;;;;;;;;;24.10;35.70;;;;;;5067622;28;19917;-55
2022/03/04 09:55:06;;;;;;;;;;;24.10;35.60;;;;;;5069708;28;20372;-56
2022/03/04 09:57:32;;;;;;;;;;;24.10;35.60;;;;;;5066431;28;19920;-55
2022/03/04 09:59:57;;;;;;;;;;;24.10;35.50;;;;;;5070473;28;20393;-55
2022/03/04 10:02:25;;;;;;;;;;;24.20;35.50;;;;;;5069332;28;20404;-56
2022/03/04 10:05:00;;;;;;;;;;;24.30;35.60;;;;;;5066104;28;19920;-56
2022/03/04 10:07:25;;;;;;;;;;;24.30;35.50;;;;;;5066480;28;20382;-56
2022/03/04 10:09:51;;;;;;;;;;;24.30;35.30;;;;;;5073158;28;20002;-56
2022/03/04 10:12:17;;;;;;;;;;;24.40;35.20;;;;;;5069290;28;19912;-55
2022/03/04 10:14:55;;;;;;;;;;;24.40;35.30;;;;;;5071061;28;19954;-56
2022/03/04 10:17:20;;;;;;;;;;;24.40;35.10;;;;;;5074220;28;19908;-56
2022/03/04 10:19:53;;;;;;;;;;;24.50;35.10;;;;;;5073085;28;20398;-56
2022/03/04 10:22:18;;;;;;;;;;;24.50;35.00;;;;;;5069845;28;19936;-56
2022/03/04 10:24:43;;;;;;;;;;;24.50;35.00;;;;;;5059548;28;20299;-56
2022/03/04 10:27:10;;;;;;;;;;;24.50;35.00;;;;;;5071081;28;20350;-56
2022/03/04 10:29:36;;;;;;;;;;;24.50;35.00;;;;;;5073762;28;19947;-55
2022/03/04 10:32:07;;;;;;;;;;;24.50;35.00;;;;;;5070885;28;20401;-55
2022/03/04 10:34:42;;;;;;;;;;;24.60;35.00;;;;;;5072955;28;19913;-56
2022/03/04 10:37:08;;;;;;;;;;;24.60;35.00;;;;;;5069407;28;19939;-56
2022/03/04 10:39:33;;;;;;;;;;;24.60;34.90;;;;;;5069065;28;20376;-55
2022/03/04 10:41:59;;;;;;;;;;;24.60;35.10;;;;;;5068818;28;20408;-56
2022/03/04 10:44:25;;;;;;;;;;;24.60;35.00;;;;;;5068648;28;20386;-55
2022/03/04 10:46:54;;;;;;;;;;;24.70;35.00;;;;;;5068451;28;20345;-56
2022/03/04 10:49:26;;;;;;;;;;;24.70;34.90;;;;;;5070536;28;19953;-56
2022/03/04 10:51:53;;;;;;;;;;;24.70;34.90;;;;;;5070080;28;20283;-56
2022/03/04 10:54:18;;;;;;;;;;;24.70;34.90;;;;;;5054106;28;20007;-57
2022/03/04 10:56:51;;;;;;;;;;;24.70;34.70;;;;;;5070716;28;20003;-56
2022/03/04 10:59:17;;;;;;;;;;;24.70;34.80;;;;;;5067223;28;19913;-56
2022/03/04 11:01:49;;;;;;;;;;;24.80;34.80;;;;;;5072974;28;19913;-55
2022/03/04 11:04:18;;;;;;;;;;;24.80;34.70;;;;;;5065923;28;20303;-56
2022/03/04 11:06:45;;;;;;;;;;;24.80;34.80;;;;;;5073980;28;19908;-56
2022/03/04 11:09:12;;;;;;;;;;;24.80;34.80;;;;;;5068362;28;20192;-55
2022/03/04 11:11:39;;;;;;;;;;;24.80;34.70;;;;;;5075356;28;19924;-55
2022/03/04 11:14:04;;;;;;;;;;;24.90;34.70;;;;;;5073818;28;19930;-56
2022/03/04 11:16:30;;;;;;;;;;;24.90;34.60;;;;;;5074934;28;19912;-55
2022/03/04 11:18:55;;;;;;;;;;;24.90;34.60;;;;;;5074437;28;19931;-55
2022/03/04 11:21:21;;;;;;;;;;;24.90;34.60;;;;;;5072698;28;19913;-55
2022/03/04 11:23:46;;;;;;;;;;;24.90;34.60;;;;;;5074335;28;19919;-56
2022/03/04 11:26:14;;;;;;;;;;;24.90;34.50;;;;;;5075186;28;19916;-56
2022/03/04 11:28:43;;;;;;;;;;;24.90;34.50;;;;;;5074571;28;19908;-56
2022/03/04 11:31:10;;;;;;;;;;;24.90;34.70;;;;;;5074223;28;19984;-56
2022/03/04 11:33:46;;;;;;;;;;;24.90;34.50;;;;;;5074263;28;19909;-55
2022/03/04 11:36:12;;;;;;;;;;;24.90;34.50;;;;;;5074634;28;19908;-55
2022/03/04 11:38:44;;;;;;;;;;;24.90;34.40;;;;;;5074472;28;19958;-55
2022/03/04 11:41:15;;;;;;;;;;;24.90;34.50;;;;;;5074599;28;19916;-55
2022/03/04 11:43:48;;;;;;;;;;;24.90;34.40;;;;;;5074196;28;19916;-55
2022/03/04 11:46:20;;;;;;;;;;;25.00;34.40;;;;;;5074432;28;19909;-55
2022/03/04 11:48:45;;;;;;;;;;;25.00;34.40;;;;;;5073101;28;19946;-55
2022/03/04 11:51:14;;;;;;;;;;;25.00;34.50;;;;;;5071291;28;19913;-55
2022/03/04 11:53:39;;;;;;;;;;;25.00;34.40;;;;;;5055604;28;19931;-55
2022/03/04 11:56:11;;;;;;;;;;;24.90;34.40;;;;;;5062298;28;19912;-55
2022/03/04 11:58:55;;;;;;;;;;;24.90;34.40;;;;;;5062049;28;19927;-55
2022/03/04 12:01:27;;;;;;;;;;;24.90;34.50;;;;;;5060571;28;19924;-55
2022/03/04 12:04:08;;;;;;;;;;;25.00;34.50;;;;;;5061492;28;19917;-55
2022/03/04 12:06:34;;;;;;;;;;;25.00;34.40;;;;;;5062508;28;19920;-55
2022/03/04 12:09:18;;;;;;;;;;;25.00;34.50;;;;;;5061044;28;19913;-55
2022/03/04 12:12:02;;;;;;;;;;;24.90;34.70;;;;;;5061868;28;19967;-54
2022/03/04 12:14:27;;;;;;;;;;;24.90;34.80;;;;;;5059535;28;20398;-54
2022/03/04 12:16:55;;;;;;;;;;;24.90;34.90;;;;;;5062151;28;19916;-55
2022/03/04 12:19:30;;;;;;;;;;;24.90;34.80;;;;;;5061289;28;20572;-54
2022/03/04 12:21:58;;;;;;;;;;;24.90;35.00;;;;;;5061692;28;19921;-55
2022/03/04 12:24:27;;;;;;;;;;;24.90;35.10;;;;;;5063082;28;19952;-56
2022/03/04 12:26:52;;;;;;;;;;;24.90;35.10;;;;;;5061981;28;20009;-56
2022/03/04 12:29:18;;;;;;;;;;;24.80;35.10;;;;;;5061108;28;19951;-56
2022/03/04 12:31:44;;;;;;;;;;;24.80;35.20;;;;;;5061616;28;19928;-55
2022/03/04 12:34:15;;;;;;;;;;;24.80;35.30;;;;;;5061070;28;19916;-55
2022/03/04 12:36:41;;;;;;;;;;;24.80;35.30;;;;;;5060782;28;19916;-55
2022/03/04 12:39:07;;;;;;;;;;;24.80;35.40;;;;;;5062275;28;20398;-56
2022/03/04 12:41:33;;;;;;;;;;;24.80;35.30;;;;;;5062590;28;19912;-54
2022/03/04 12:43:59;;;;;;;;;;;24.80;35.40;;;;;;5063015;28;19976;-55
2022/03/04 12:46:25;;;;;;;;;;;24.80;35.30;;;;;;5063021;28;19924;-55
2022/03/04 12:48:52;;;;;;;;;;;24.80;35.40;;;;;;5063726;28;19927;-55
2022/03/04 12:51:37;;;;;;;;;;;24.80;35.40;;;;;;5060892;28;19917;-55
2022/03/04 12:54:06;;;;;;;;;;;24.80;35.30;;;;;;5058078;28;19916;-55
2022/03/04 12:56:32;;;;;;;;;;;24.90;35.30;;;;;;5062556;28;19919;-55
2022/03/04 12:58:58;;;;;;;;;;;24.90;35.10;;;;;;5061538;28;19917;-55
2022/03/04 13:01:24;;;;;;;;;;;24.90;35.00;;;;;;5061851;28;19913;-55
2022/03/04 13:03:50;;;;;;;;;;;25.00;35.00;;;;;;5060248;28;19924;-55
2022/03/04 13:06:17;;;;;;;;;;;25.00;35.00;;;;;;5059566;28;19925;-55
2022/03/04 13:08:49;;;;;;;;;;;25.10;35.00;;;;;;5061504;28;19926;-55
2022/03/04 13:11:16;;;;;;;;;;;25.00;35.00;;;;;;5061644;28;19921;-55
2022/03/04 13:14:02;;;;;;;;;;;25.10;35.00;;;;;;5061345;28;19958;-56
2022/03/04 13:16:41;;;;;;;;;;;25.10;34.90;;;;;;5062013;28;19917;-55
2022/03/04 13:19:10;;;;;;;;;;;25.10;34.70;;;;;;5058887;28;19996;-55
2022/03/04 13:21:36;;;;;;;;;;;25.20;34.70;;;;;;5065943;28;20382;-56
2022/03/04 13:24:12;;;;;;;;;;;25.20;34.40;;;;;;5071244;28;19928;-55
2022/03/04 13:26:40;;;;;;;;;;;25.30;34.50;;;;;;5071490;28;19953;-54
2022/03/04 13:29:06;;;;;;;;;;;25.30;34.30;;;;;;5071013;28;19934;-55
2022/03/04 13:31:35;;;;;;;;;;;25.40;34.40;;;;;;5062783;28;20372;-56
2022/03/04 13:34:01;;;;;;;;;;;25.40;34.40;;;;;;5070362;28;19909;-56
2022/03/04 13:36:39;;;;;;;;;;;25.40;34.30;;;;;;5072102;28;19919;-53
2022/03/04 13:39:08;;;;;;;;;;;25.40;34.30;;;;;;5069593;28;19947;-56
2022/03/04 13:41:33;;;;;;;;;;;25.40;34.30;;;;;;5072657;28;19931;-56
2022/03/04 13:44:08;;;;;;;;;;;25.40;34.40;;;;;;5066903;28;19916;-56
2022/03/04 13:46:34;;;;;;;;;;;25.50;34.50;;;;;;5069056;28;19916;-56
2022/03/04 13:49:00;;;;;;;;;;;25.50;34.40;;;;;;5062547;28;20283;-55
2022/03/04 13:51:25;;;;;;;;;;;25.50;34.40;;;;;;5061114;28;20007;-56
2022/03/04 13:53:54;;;;;;;;;;;25.60;34.40;;;;;;5067486;28;19999;-55
2022/03/04 13:56:21;;;;;;;;;;;25.60;34.40;;;;;;5074280;28;20316;-56
2022/03/04 13:58:54;;;;;;;;;;;25.60;34.50;;;;;;5060657;28;19920;-56
2022/03/04 14:01:20;;;;;;;;;;;25.60;34.50;;;;;;5067500;28;19912;-55
2022/03/04 14:03:46;;;;;;;;;;;25.60;34.30;;;;;;5073972;28;19923;-56
2022/03/04 14:06:12;;;;;;;;;;;25.60;34.40;;;;;;5072101;28;19928;-56
2022/03/04 14:08:37;;;;;;;;;;;25.60;34.30;;;;;;5073994;28;19913;-55
2022/03/04 14:11:07;;;;;;;;;;;25.60;34.20;;;;;;5075787;28;19944;-55
2022/03/04 14:13:32;;;;;;;;;;;25.60;34.20;;;;;;5063815;28;19920;-56
2022/03/04 14:15:58;;;;;;;;;;;25.60;34.20;;;;;;5074274;28;19920;-56